Time;durP1;ratioP1;P1;durP2;ratioP2;P2;SDS_P1;SDS_P2;PMS_P1;PMS_P2;Temp;Humidity;BMP_temperature;BMP_pressure;BME280_temperature;BME280_humidity;BME280_pressure;Samples;Min_cycle;Max_cycle;Signal;HPM_P1;HPM_P2
2022/05/07 00:02:17;;;;;;;;;;;;;;;7.16;100.00;101097.98;1633776;88;20167;-73
2022/05/07 00:04:44;;;;;;;;;;;;;;;7.14;100.00;101102.13;1633618;88;20112;-72
2022/05/07 00:07:11;;;;;;;;;;;;;;;7.14;100.00;101110.70;1633704;88;20116;-73
2022/05/07 00:09:37;;;;;;;;;;;;;;;7.14;100.00;101107.52;1633483;88;20124;-72
2022/05/07 00:12:07;;;;;;;;;;;;;;;7.13;100.00;101106.28;1633570;88;20135;-73
2022/05/07 00:14:34;;;;;;;;;;;;;;;7.11;100.00;101110.94;1634019;87;20108;-72
2022/05/07 00:19:47;;;;;;;;;;;;;;;7.06;100.00;101101.87;1634223;88;20124;-72
2022/05/07 00:22:15;;;;;;;;;;;;;;;7.01;100.00;101109.45;1633543;88;20417;-73
2022/05/07 00:24:41;;;;;;;;;;;;;;;6.97;100.00;101111.53;1633804;88;20120;-73
2022/05/07 00:27:08;;;;;;;;;;;;;;;6.92;100.00;101114.22;1641448;87;20404;-73
2022/05/07 00:29:35;;;;;;;;;;;;;;;6.88;100.00;101112.27;1644296;87;20127;-73
2022/05/07 00:32:04;;;;;;;;;;;;;;;6.84;100.00;101112.99;1644233;87;20133;-73
2022/05/07 00:34:31;;;;;;;;;;;;;;;6.79;100.00;101107.61;1644260;87;20119;-73
2022/05/07 00:37:01;;;;;;;;;;;;;;;6.74;100.00;101113.34;1644288;87;20095;-73
2022/05/07 00:39:28;;;;;;;;;;;;;;;6.70;100.00;101115.06;1644429;87;20112;-72
2022/05/07 00:41:55;;;;;;;;;;;;;;;6.62;100.00;101114.30;1644522;87;20120;-73
2022/05/07 00:44:22;;;;;;;;;;;;;;;6.59;100.00;101115.41;1644755;87;20123;-73
2022/05/07 00:46:50;;;;;;;;;;;;;;;6.55;100.00;101115.75;1650891;86;20137;-72
2022/05/07 00:49:18;;;;;;;;;;;;;;;6.53;100.00;101106.45;1670205;86;20106;-70
2022/05/07 00:51:46;;;;;;;;;;;;;;;6.48;100.00;101105.98;1670583;86;20114;-72
2022/05/07 00:54:13;;;;;;;;;;;;;;;6.43;100.00;101108.17;1670128;86;20153;-72
2022/05/07 00:56:40;;;;;;;;;;;;;;;6.40;100.00;101117.30;1670199;86;20114;-72
2022/05/07 00:59:08;;;;;;;;;;;;;;;6.35;100.00;101114.61;1669873;86;20146;-72
2022/05/07 01:01:35;;;;;;;;;;;;;;;6.30;100.00;101114.95;1669951;86;20133;-73
2022/05/07 01:04:02;;;;;;;;;;;;;;;6.25;100.00;101119.80;1669873;86;20140;-73
2022/05/07 01:06:31;;;;;;;;;;;;;;;6.21;100.00;101112.97;1670022;86;20113;-73
2022/05/07 01:08:59;;;;;;;;;;;;;;;6.16;100.00;101110.66;1669772;86;20386;-72
2022/05/07 01:11:27;;;;;;;;;;;;;;;6.13;100.00;101115.40;1669596;86;20125;-72
2022/05/07 01:13:56;;;;;;;;;;;;;;;6.13;100.00;101116.74;1670033;86;20122;-73
2022/05/07 01:16:24;;;;;;;;;;;;;;;6.11;100.00;101118.66;1670094;86;20136;-73
2022/05/07 01:18:51;;;;;;;;;;;;;;;6.11;100.00;101117.31;1670068;86;20145;-73
2022/05/07 01:21:18;;;;;;;;;;;;;;;6.11;100.00;101111.95;1669825;86;20105;-72
2022/05/07 01:23:49;;;;;;;;;;;;;;;6.08;100.00;101115.23;1670141;86;20418;-73
2022/05/07 01:26:20;;;;;;;;;;;;;;;6.05;100.00;101125.36;1667854;86;20130;-73
2022/05/07 01:28:45;;;;;;;;;;;;;;;5.99;100.00;101126.67;1663172;86;20126;-73
2022/05/07 01:31:12;;;;;;;;;;;;;;;5.98;100.00;101128.97;1663153;86;20422;-72
2022/05/07 01:33:39;;;;;;;;;;;;;;;5.96;100.00;101128.73;1663195;86;20138;-72
2022/05/07 01:36:11;;;;;;;;;;;;;;;5.95;100.00;101130.54;1671385;86;20115;-72
2022/05/07 01:38:38;;;;;;;;;;;;;;;5.95;100.00;101133.22;1671357;86;20120;-73
2022/05/07 01:41:04;;;;;;;;;;;;;;;5.96;100.00;101135.45;1671922;85;20124;-73
2022/05/07 01:43:35;;;;;;;;;;;;;;;5.96;100.00;101127.39;1648695;86;20103;-73
2022/05/07 01:48:09;;;;;;;;;;;;;;;5.96;100.00;101130.92;1671539;86;20404;-73
2022/05/07 01:48:33;;;;;;;;;;;;;;;5.97;100.00;101142.55;1687698;85;20107;-73
2022/05/07 01:51:00;;;;;;;;;;;;;;;5.98;100.00;101137.52;1668935;85;20384;-72
2022/05/07 01:53:29;;;;;;;;;;;;;;;5.98;100.00;101142.89;1691939;84;20104;-72
2022/05/07 01:55:57;;;;;;;;;;;;;;;5.97;100.00;101143.39;1692626;85;20108;-72
2022/05/07 01:58:26;;;;;;;;;;;;;;;5.97;100.00;101143.39;1689057;85;20103;-72
2022/05/07 02:00:56;;;;;;;;;;;;;;;5.96;100.00;101146.19;1692401;85;20139;-73
2022/05/07 02:03:23;;;;;;;;;;;;;;;5.96;100.00;101143.00;1692455;85;20103;-73
2022/05/07 02:05:50;;;;;;;;;;;;;;;5.94;100.00;101144.92;1692523;85;20119;-72
2022/05/07 02:08:17;;;;;;;;;;;;;;;5.93;100.00;101147.22;1693217;85;20103;-72
2022/05/07 02:10:44;;;;;;;;;;;;;;;5.89;100.00;101149.77;1692639;85;20140;-73
2022/05/07 02:13:13;;;;;;;;;;;;;;;5.85;100.00;101159.03;1691979;85;20116;-71
2022/05/07 02:15:41;;;;;;;;;;;;;;;5.82;100.00;101156.07;1692315;85;20103;-73
2022/05/07 02:18:08;;;;;;;;;;;;;;;5.79;100.00;101156.78;1692412;85;20415;-73
2022/05/07 02:20:35;;;;;;;;;;;;;;;5.77;100.00;101156.92;1692571;85;20154;-72
2022/05/07 02:23:02;;;;;;;;;;;;;;;5.75;100.00;101164.70;1692297;85;20112;-73
2022/05/07 02:25:29;;;;;;;;;;;;;;;5.72;100.00;101164.45;1692488;85;20115;-73
2022/05/07 02:28:00;;;;;;;;;;;;;;;5.68;100.00;101165.16;1692004;85;20096;-74
2022/05/07 02:30:28;;;;;;;;;;;;;;;5.66;100.00;101167.07;1692289;85;20111;-70
2022/05/07 02:32:57;;;;;;;;;;;;;;;5.63;100.00;101168.66;1692168;85;20163;-72
2022/05/07 02:35:25;;;;;;;;;;;;;;;5.62;100.00;101169.61;1691874;85;20112;-72
2022/05/07 02:37:53;;;;;;;;;;;;;;;5.63;100.00;101174.03;1692094;85;20158;-72
2022/05/07 02:40:21;;;;;;;;;;;;;;;5.63;100.00;101175.83;1692108;85;20467;-72
2022/05/07 02:42:48;;;;;;;;;;;;;;;5.63;100.00;101173.14;1692238;85;20124;-72
2022/05/07 02:45:19;;;;;;;;;;;;;;;5.63;100.00;101171.34;1596757;89;20106;-70
2022/05/07 02:47:47;;;;;;;;;;;;;;;5.64;100.00;101173.04;1585347;90;20126;-72
2022/05/07 02:50:15;;;;;;;;;;;;;;;5.67;100.00;101174.16;1586040;91;20146;-72
2022/05/07 02:52:43;;;;;;;;;;;;;;;5.71;100.00;101171.63;1583962;91;20112;-74
2022/05/07 02:55:11;;;;;;;;;;;;;;;5.82;100.00;101174.02;1584296;91;20143;-70
2022/05/07 02:57:39;;;;;;;;;;;;;;;5.88;100.00;101174.92;1583962;91;20122;-72
2022/05/07 03:00:07;;;;;;;;;;;;;;;5.95;100.00;101174.84;1584258;91;20422;-72
2022/05/07 03:02:36;;;;;;;;;;;;;;;6.01;100.00;101177.08;1584040;91;20391;-72
2022/05/07 03:05:05;;;;;;;;;;;;;;;6.09;100.00;101175.16;1584114;91;20118;-72
2022/05/07 03:07:34;;;;;;;;;;;;;;;6.14;100.00;101177.02;1584075;91;20122;-73
2022/05/07 03:10:04;;;;;;;;;;;;;;;6.22;100.00;101177.81;1583980;91;20439;-72
2022/05/07 03:12:31;;;;;;;;;;;;;;;6.26;100.00;101184.66;1584219;91;20143;-72
2022/05/07 03:14:59;;;;;;;;;;;;;;;6.31;100.00;101182.48;1584281;91;20149;-72
2022/05/07 03:17:26;;;;;;;;;;;;;;;6.36;100.00;101191.55;1584144;91;20899;-72
2022/05/07 03:19:52;;;;;;;;;;;;;;;6.38;100.00;101191.80;1584109;91;20458;-71
2022/05/07 03:22:21;;;;;;;;;;;;;;;6.40;100.00;101194.37;1584156;91;20111;-72
2022/05/07 03:24:50;;;;;;;;;;;;;;;6.42;100.00;101187.05;1583921;91;20136;-71
2022/05/07 03:27:17;;;;;;;;;;;;;;;6.45;100.00;101193.53;1590247;90;20110;-71
2022/05/07 03:29:44;;;;;;;;;;;;;;;6.50;100.00;101196.73;1597336;90;20106;-73
2022/05/07 03:32:13;;;;;;;;;;;;;;;6.51;100.00;101202.46;1596476;90;20113;-72
2022/05/07 03:34:40;;;;;;;;;;;;;;;6.53;100.00;101204.54;1605422;89;20122;-72
2022/05/07 03:37:07;;;;;;;;;;;;;;;6.57;100.00;101217.26;1616283;87;20126;-72
2022/05/07 03:39:35;;;;;;;;;;;;;;;6.59;100.00;101212.65;1616098;89;20110;-73
2022/05/07 03:42:03;;;;;;;;;;;;;;;6.62;100.00;101215.08;1646309;85;20132;-72
2022/05/07 03:44:30;;;;;;;;;;;;;;;6.67;100.00;101214.25;1687683;85;20116;-71
2022/05/07 03:46:57;;;;;;;;;;;;;;;6.72;100.00;101213.41;1687727;85;20155;-71
2022/05/07 03:49:25;;;;;;;;;;;;;;;6.77;100.00;101219.79;1687473;85;20116;-71
2022/05/07 03:54:38;;;;;;;;;;;;;;;6.92;100.00;101218.59;1688083;85;20407;-72
2022/05/07 03:57:05;;;;;;;;;;;;;;;7.03;100.00;101218.63;1687927;85;20131;-73
2022/05/07 03:59:34;;;;;;;;;;;;;;;7.13;100.00;101221.45;1688320;84;20104;-73
2022/05/07 04:02:01;;;;;;;;;;;;;;;7.27;100.00;101216.83;1687986;85;20139;-70
2022/05/07 04:04:30;;;;;;;;;;;;;;;7.39;100.00;101219.90;1685829;85;20115;-72
2022/05/07 04:06:59;;;;;;;;;;;;;;;7.50;100.00;101232.50;1689128;85;20111;-72
2022/05/07 04:09:26;;;;;;;;;;;;;;;7.61;100.00;101224.41;1673913;85;20156;-71
2022/05/07 04:11:54;;;;;;;;;;;;;;;7.72;100.00;101221.73;1687736;85;20147;-71
2022/05/07 04:14:22;;;;;;;;;;;;;;;7.84;100.00;101214.98;1687637;85;20111;-70
2022/05/07 04:16:51;;;;;;;;;;;;;;;7.98;100.00;101220.09;1687788;85;20428;-72
2022/05/07 04:19:18;;;;;;;;;;;;;;;8.11;100.00;101222.16;1687723;85;20115;-72
2022/05/07 04:21:46;;;;;;;;;;;;;;;8.26;100.00;101221.37;1687464;85;20115;-72
2022/05/07 04:24:20;;;;;;;;;;;;;;;8.41;100.00;101227.34;1687733;85;20116;-71
2022/05/07 04:26:49;;;;;;;;;;;;;;;8.56;100.00;101219.83;1688122;85;20170;-72
2022/05/07 04:29:17;;;;;;;;;;;;;;;8.71;100.00;101227.98;1692207;84;20442;-71
2022/05/07 04:31:46;;;;;;;;;;;;;;;8.86;100.00;101230.36;1692186;85;20127;-72
2022/05/07 04:34:13;;;;;;;;;;;;;;;9.02;100.00;101228.55;1691960;85;20493;-73
2022/05/07 04:36:41;;;;;;;;;;;;;;;9.20;100.00;101226.10;1692329;84;20233;-72
2022/05/07 04:39:09;;;;;;;;;;;;;;;9.40;100.00;101219.83;1688764;85;20416;-72
2022/05/07 04:41:38;;;;;;;;;;;;;;;9.64;100.00;101226.23;1688700;85;20435;-72
2022/05/07 04:44:05;;;;;;;;;;;;;;;9.91;100.00;101221.22;1692237;85;20128;-72
2022/05/07 04:46:33;;;;;;;;;;;;;;;10.13;100.00;101226.40;1687872;85;20116;-71
2022/05/07 04:49:02;;;;;;;;;;;;;;;10.35;98.22;101223.12;1663785;86;20118;-71
2022/05/07 04:51:29;;;;;;;;;;;;;;;10.54;95.08;101219.08;1664169;86;20414;-71
2022/05/07 04:53:58;;;;;;;;;;;;;;;10.75;93.86;101224.84;1570115;90;20124;-71
2022/05/07 04:56:25;;;;;;;;;;;;;;;10.97;92.27;101216.91;1569975;91;20426;-71
2022/05/07 04:58:56;;;;;;;;;;;;;;;11.17;90.46;101216.36;1569949;91;20108;-73
2022/05/07 05:01:25;;;;;;;;;;;;;;;11.35;86.81;101221.86;1570062;91;20477;-71
2022/05/07 05:03:52;;;;;;;;;;;;;;;11.49;83.98;101211.94;1565127;92;20115;-73
2022/05/07 05:06:21;;;;;;;;;;;;;;;11.61;79.09;101216.64;1564815;92;20144;-71
2022/05/07 05:08:58;;;;;;;;;;;;;;;11.71;77.25;101219.32;1564453;92;20150;-71
2022/05/07 05:11:27;;;;;;;;;;;;;;;11.83;76.39;101211.83;1565336;92;20448;-73
2022/05/07 05:13:54;;;;;;;;;;;;;;;11.92;73.95;101213.17;1565337;92;20128;-72
2022/05/07 05:16:22;;;;;;;;;;;;;;;12.02;74.46;101212.27;1565326;90;20115;-72
2022/05/07 05:18:50;;;;;;;;;;;;;;;12.15;72.55;101204.62;1564655;91;20442;-72
2022/05/07 05:21:19;;;;;;;;;;;;;;;12.26;69.34;101205.75;1564856;92;20179;-71
2022/05/07 05:23:51;;;;;;;;;;;;;;;12.40;69.65;101204.38;1564376;92;20146;-70
2022/05/07 05:26:18;;;;;;;;;;;;;;;12.59;66.08;101197.06;1565328;92;20154;-72
2022/05/07 05:28:50;;;;;;;;;;;;;;;12.72;63.10;101211.95;1563924;92;20131;-72
2022/05/07 05:31:17;;;;;;;;;;;;;;;12.81;60.64;101209.31;1564773;92;20131;-69
2022/05/07 05:33:45;;;;;;;;;;;;;;;12.91;56.46;101204.66;1566185;90;20570;-71
2022/05/07 05:36:14;;;;;;;;;;;;;;;12.97;57.28;101201.80;1587543;90;20126;-71
2022/05/07 05:38:41;;;;;;;;;;;;;;;13.10;57.57;101209.88;1593802;89;20178;-71
2022/05/07 05:41:09;;;;;;;;;;;;;;;13.19;56.06;101202.64;1590194;89;20116;-70
2022/05/07 05:43:38;;;;;;;;;;;;;;;13.31;56.19;101207.31;1590006;90;20591;-72
2022/05/07 05:46:05;;;;;;;;;;;;;;;13.44;55.53;101201.47;1590212;90;20128;-71
2022/05/07 05:48:34;;;;;;;;;;;;;;;13.50;53.63;101210.31;1595549;90;20172;-72
2022/05/07 05:51:01;;;;;;;;;;;;;;;13.61;54.17;101205.95;1640962;86;20137;-70
2022/05/07 05:53:33;;;;;;;;;;;;;;;13.76;54.24;101210.80;1681896;85;20136;-73
2022/05/07 05:56:00;;;;;;;;;;;;;;;13.91;51.94;101209.66;1681885;84;20104;-71
2022/05/07 05:58:33;;;;;;;;;;;;;;;13.95;50.76;101206.45;1680349;85;20104;-71
2022/05/07 06:01:00;;;;;;;;;;;;;;;13.96;49.42;101204.06;1681797;85;20147;-70
2022/05/07 06:03:26;;;;;;;;;;;;;;;13.93;48.46;101207.09;1666829;85;20397;-69
2022/05/07 06:05:55;;;;;;;;;;;;;;;13.98;48.36;101208.81;1675730;85;20224;-72
2022/05/07 06:08:22;;;;;;;;;;;;;;;14.03;48.11;101200.17;1691351;85;20139;-72
2022/05/07 06:10:54;;;;;;;;;;;;;;;14.10;47.57;101199.86;1666126;85;20111;-71
2022/05/07 06:13:21;;;;;;;;;;;;;;;14.17;47.58;101197.33;1691562;84;20108;-70
2022/05/07 06:15:51;;;;;;;;;;;;;;;14.22;47.45;101197.17;1691695;85;20115;-72
2022/05/07 06:18:19;;;;;;;;;;;;;;;14.34;45.21;101194.12;1691530;85;20104;-71
2022/05/07 06:20:48;;;;;;;;;;;;;;;14.42;45.30;101182.73;1691384;84;20154;-70
2022/05/07 06:23:16;;;;;;;;;;;;;;;14.51;44.94;101186.31;1691239;84;20131;-72
2022/05/07 06:28:29;;;;;;;;;;;;;;;14.72;44.62;101181.77;1691171;84;20112;-71
2022/05/07 06:30:56;;;;;;;;;;;;;;;14.87;43.73;101183.27;1654255;85;20094;-72
2022/05/07 06:33:25;;;;;;;;;;;;;;;15.07;44.68;101181.55;1668434;85;20111;-72
2022/05/07 06:35:53;;;;;;;;;;;;;;;15.40;45.59;101176.04;1674050;84;20432;-71
2022/05/07 06:38:22;;;;;;;;;;;;;;;15.71;43.74;101176.95;1671180;85;20116;-72
2022/05/07 06:40:50;;;;;;;;;;;;;;;15.87;42.91;101182.03;1674014;85;20108;-71
2022/05/07 06:43:17;;;;;;;;;;;;;;;15.89;41.96;101178.08;1673918;85;20130;-69
2022/05/07 06:45:46;;;;;;;;;;;;;;;15.91;41.80;101182.84;1666921;85;20192;-71
2022/05/07 06:48:13;;;;;;;;;;;;;;;15.88;40.89;101176.89;1673722;85;20094;-70
2022/05/07 06:50:41;;;;;;;;;;;;;;;15.91;42.64;101176.55;1679804;85;20111;-72
2022/05/07 06:53:08;;;;;;;;;;;;;;;16.21;44.19;101170.73;1673876;85;20138;-72
2022/05/07 06:55:54;;;;;;;;;;;;;;;16.57;43.54;101167.39;1670012;84;20099;-72
2022/05/07 06:58:05;;;;;;;;;;;;;;;16.72;41.55;101166.63;1670663;85;20103;-71
2022/05/07 07:00:32;;;;;;;;;;;;;;;16.76;39.83;101172.03;1669962;85;20132;-71
2022/05/07 07:02:59;;;;;;;;;;;;;;;16.74;38.75;101182.30;1680510;84;20171;-71
2022/05/07 07:05:26;;;;;;;;;;;;;;;16.69;39.41;101171.39;1667858;85;20418;-70
2022/05/07 07:07:52;;;;;;;;;;;;;;;16.91;39.78;101168.87;1671496;84;20096;-70
2022/05/07 07:10:20;;;;;;;;;;;;;;;17.01;38.02;101168.05;1671883;85;20109;-70
2022/05/07 07:12:48;;;;;;;;;;;;;;;16.98;38.10;101165.72;1659362;85;20105;-72
2022/05/07 07:15:15;;;;;;;;;;;;;;;17.00;38.13;101173.20;1649940;87;20134;-70
2022/05/07 07:17:42;;;;;;;;;;;;;;;16.99;37.64;101164.67;1658131;85;20141;-72
2022/05/07 07:20:10;;;;;;;;;;;;;;;17.02;38.58;101165.67;1663670;84;20103;-71
2022/05/07 07:22:37;;;;;;;;;;;;;;;17.28;39.08;101160.26;1672453;85;20104;-72
2022/05/07 07:25:07;;;;;;;;;;;;;;;17.52;38.42;101156.94;1654788;85;20157;-73
2022/05/07 07:27:34;;;;;;;;;;;;;;;17.64;36.97;101165.82;1667268;84;20101;-70
2022/05/07 07:30:01;;;;;;;;;;;;;;;17.54;36.39;101158.95;1691390;84;20103;-74
2022/05/07 07:32:28;;;;;;;;;;;;;;;17.49;37.00;101160.03;1691155;84;20099;-70
2022/05/07 07:34:56;;;;;;;;;;;;;;;17.48;37.42;101165.19;1699971;84;20431;-71
2022/05/07 07:37:23;;;;;;;;;;;;;;;17.52;37.20;101149.56;1697470;84;20136;-71
2022/05/07 07:39:50;;;;;;;;;;;;;;;17.57;37.31;101153.95;1698431;83;20134;-73
2022/05/07 07:42:20;;;;;;;;;;;;;;;17.78;36.65;101144.12;1681046;84;20104;-73
2022/05/07 07:47:56;;;;;;;;;;;;;;;17.86;36.91;101141.82;1679629;85;20116;-69
2022/05/07 07:49:59;;;;;;;;;;;;;;;17.97;36.37;101135.83;1680665;84;20461;-73
2022/05/07 07:52:26;;;;;;;;;;;;;;;17.97;36.08;101139.44;1680685;85;20151;-72
2022/05/07 07:54:53;;;;;;;;;;;;;;;18.06;36.51;101131.96;1680370;85;20425;-73
2022/05/07 07:57:21;;;;;;;;;;;;;;;18.28;37.08;101128.70;1685266;84;20159;-72
2022/05/07 07:59:48;;;;;;;;;;;;;;;18.43;35.39;101124.52;1690913;84;20101;-71
2022/05/07 08:02:14;;;;;;;;;;;;;;;18.53;34.90;101124.19;1680435;85;20125;-73
2022/05/07 08:04:42;;;;;;;;;;;;;;;18.62;35.00;101116.69;1680463;85;20116;-73
2022/05/07 08:12:41;;;;;;;;;;;;;;;19.57;35.64;101117.12;1702476;84;20127;-74
2022/05/07 08:15:08;;;;;;;;;;;;;;;19.86;34.49;101107.75;1684785;84;20122;-72
2022/05/07 08:17:35;;;;;;;;;;;;;;;20.06;33.27;101108.66;1701456;84;20135;-73
2022/05/07 08:20:03;;;;;;;;;;;;;;;20.04;31.54;101107.16;1687894;84;20149;-73
2022/05/07 08:22:30;;;;;;;;;;;;;;;19.69;31.49;101105.34;1687434;84;20129;-72
2022/05/07 08:24:57;;;;;;;;;;;;;;;19.45;31.54;101103.97;1680658;85;20129;-75
2022/05/07 08:27:24;;;;;;;;;;;;;;;19.36;31.32;101116.16;1680474;85;20117;-72
2022/05/07 08:29:56;;;;;;;;;;;;;;;19.19;31.40;101104.67;1671136;85;20102;-74
2022/05/07 08:32:23;;;;;;;;;;;;;;;19.30;33.11;101102.75;1671121;86;20093;-73
2022/05/07 08:34:52;;;;;;;;;;;;;;;19.66;33.45;101098.89;1670988;85;20109;-73
2022/05/07 08:37:18;;;;;;;;;;;;;;;19.94;31.57;101091.10;1671300;85;20414;-73
2022/05/07 08:39:45;;;;;;;;;;;;;;;19.93;30.86;101103.12;1677572;85;20113;-73
2022/05/07 08:42:12;;;;;;;;;;;;;;;19.84;31.30;101105.20;1694373;85;20122;-72
2022/05/07 08:44:40;;;;;;;;;;;;;;;19.93;31.77;101099.54;1699051;84;20108;-71
2022/05/07 08:47:08;;;;;;;;;;;;;;;20.12;32.36;101089.67;1689042;84;20115;-72
2022/05/07 08:49:35;;;;;;;;;;;;;;;20.36;32.25;101086.82;1686554;85;20099;-71
2022/05/07 08:52:02;;;;;;;;;;;;;;;20.58;32.31;101089.69;1683318;85;20135;-72
2022/05/07 08:54:30;;;;;;;;;;;;;;;20.74;31.86;101080.20;1686211;85;20142;-71
2022/05/07 08:56:57;;;;;;;;;;;;;;;20.87;31.31;101075.20;1682185;85;20165;-72
2022/05/07 08:59:24;;;;;;;;;;;;;;;20.90;30.84;101073.95;1683888;85;20179;-73
2022/05/07 09:01:51;;;;;;;;;;;;;;;20.81;30.15;101067.29;1688819;84;20095;-72
2022/05/07 09:04:18;;;;;;;;;;;;;;;20.74;30.90;101069.20;1676338;85;20422;-72
2022/05/07 09:06:45;;;;;;;;;;;;;;;20.89;31.22;101072.24;1687405;84;20110;-72
2022/05/07 09:09:12;;;;;;;;;;;;;;;21.05;31.37;101071.27;1684403;84;20109;-73
2022/05/07 09:11:42;;;;;;;;;;;;;;;21.04;30.56;101065.98;1682231;85;20170;-73
2022/05/07 09:14:08;;;;;;;;;;;;;;;21.06;30.27;101061.11;1685110;85;20114;-70
2022/05/07 09:16:47;;;;;;;;;;;;;;;21.09;29.74;101068.94;1687632;85;20141;-73
2022/05/07 09:19:25;;;;;;;;;;;;;;;21.11;30.12;101059.09;1685322;85;20131;-73
2022/05/07 09:21:54;;;;;;;;;;;;;;;21.22;30.62;101048.79;1685993;85;20121;-73
2022/05/07 09:24:22;;;;;;;;;;;;;;;21.28;30.61;101049.82;1683275;85;20178;-73
2022/05/07 09:26:49;;;;;;;;;;;;;;;21.40;30.96;101046.16;1684816;85;20398;-74
2022/05/07 09:29:16;;;;;;;;;;;;;;;21.50;29.87;101034.73;1687811;84;20133;-72
2022/05/07 09:31:44;;;;;;;;;;;;;;;21.52;30.06;101039.48;1687320;84;20127;-70
2022/05/07 09:37:12;;;;;;;;;;;;;;;21.45;28.63;101043.31;1655671;86;20137;-71
2022/05/07 09:39:39;;;;;;;;;;;;;;;21.34;28.57;101043.47;1675666;86;20112;-75
2022/05/07 09:42:07;;;;;;;;;;;;;;;21.11;28.40;101046.72;1676815;86;20143;-73
2022/05/07 09:44:33;;;;;;;;;;;;;;;21.10;29.48;101038.14;1676963;86;20411;-72
2022/05/07 09:47:01;;;;;;;;;;;;;;;21.12;28.49;101021.73;1676292;86;20182;-72
2022/05/07 09:49:28;;;;;;;;;;;;;;;20.96;28.17;101046.42;1669069;86;20164;-73
2022/05/07 09:51:56;;;;;;;;;;;;;;;20.93;28.82;101034.50;1676528;86;20463;-74
2022/05/07 09:59:58;;;;;;;;;;;;;;;21.08;28.32;101033.40;1623578;86;20155;-74
2022/05/07 10:02:50;;;;;;;;;;;;;;;21.14;27.82;101018.77;1676274;86;20463;-74
2022/05/07 10:05:46;;;;;;;;;;;;;;;21.34;28.39;101016.79;1678506;84;20119;-73
2022/05/07 10:08:26;;;;;;;;;;;;;;;21.47;27.65;101011.78;1676255;86;20103;-73
2022/05/07 10:10:54;;;;;;;;;;;;;;;21.76;28.31;101013.11;1676034;86;20136;-74
2022/05/07 10:13:21;;;;;;;;;;;;;;;22.03;28.13;101010.67;1676139;86;20123;-75
2022/05/07 10:16:02;;;;;;;;;;;;;;;22.13;27.39;101006.89;1675575;84;20123;-72
2022/05/07 10:18:33;;;;;;;;;;;;;;;22.16;27.42;101007.83;1612452;89;21050;-72
2022/05/07 10:21:12;;;;;;;;;;;;;;;22.31;26.57;101006.14;1640152;87;20173;-72
2022/05/07 10:23:53;;;;;;;;;;;;;;;22.18;26.44;101006.52;1590897;89;20976;-73
2022/05/07 10:26:21;;;;;;;;;;;;;;;21.99;27.03;101002.88;1642974;87;20153;-72
2022/05/07 10:28:48;;;;;;;;;;;;;;;22.16;27.13;101009.21;1642663;87;20142;-72
2022/05/07 10:31:22;;;;;;;;;;;;;;;22.30;26.34;100998.96;1641414;87;20106;-71
2022/05/07 10:33:50;;;;;;;;;;;;;;;22.47;26.84;101002.83;1601023;89;20455;-71
2022/05/07 10:36:17;;;;;;;;;;;;;;;22.43;25.29;101000.20;1599047;88;20161;-72
2022/05/07 10:38:45;;;;;;;;;;;;;;;21.99;25.87;100989.12;1603198;89;20150;-71
2022/05/07 10:41:16;;;;;;;;;;;;;;;21.74;25.75;100989.09;1603681;89;20555;-72
2022/05/07 10:43:48;;;;;;;;;;;;;;;21.43;26.17;100985.20;1604303;89;20248;-71
2022/05/07 10:46:17;;;;;;;;;;;;;;;21.46;26.86;100975.72;1603496;89;20531;-72
2022/05/07 10:48:50;;;;;;;;;;;;;;;21.77;27.77;100959.72;1593313;89;20525;-72
2022/05/07 10:51:19;;;;;;;;;;;;;;;22.11;27.55;100965.80;1622557;88;20156;-72
2022/05/07 10:53:46;;;;;;;;;;;;;;;22.21;26.66;100969.98;1626082;88;20143;-72
2022/05/07 10:56:18;;;;;;;;;;;;;;;22.14;26.24;100975.00;1613532;89;20126;-72
2022/05/07 10:58:52;;;;;;;;;;;;;;;22.00;26.16;100964.62;1575003;91;20178;-72
2022/05/07 11:01:20;;;;;;;;;;;;;;;21.82;26.26;100967.87;1583788;91;20119;-72
2022/05/07 11:04:07;;;;;;;;;;;;;;;21.75;26.75;100955.52;1584664;91;20144;-71
2022/05/07 11:06:44;;;;;;;;;;;;;;;21.88;26.40;100949.90;1586298;90;20147;-70
2022/05/07 11:09:15;;;;;;;;;;;;;;;21.91;26.38;100948.63;1589041;90;20099;-72
2022/05/07 11:11:47;;;;;;;;;;;;;;;21.99;26.03;100948.33;1595916;90;20475;-71
2022/05/07 11:14:23;;;;;;;;;;;;;;;22.09;26.04;100952.80;1587095;90;20412;-72
2022/05/07 11:16:51;;;;;;;;;;;;;;;22.20;26.75;100940.20;1501891;96;20437;-71
2022/05/07 11:19:25;;;;;;;;;;;;;;;22.43;26.10;100937.37;1502282;96;20132;-72
2022/05/07 11:21:53;;;;;;;;;;;;;;;22.44;25.13;100941.83;1502481;94;20132;-70
2022/05/07 11:24:24;;;;;;;;;;;;;;;22.34;25.71;100933.52;1502221;96;20196;-69
2022/05/07 11:26:55;;;;;;;;;;;;;;;22.26;24.64;100929.67;1501869;96;20120;-73
2022/05/07 11:29:23;;;;;;;;;;;;;;;22.04;25.88;100931.97;1504290;93;20124;-72
2022/05/07 11:32:00;;;;;;;;;;;;;;;22.03;26.44;100923.42;1517667;94;20115;-72
2022/05/07 11:34:38;;;;;;;;;;;;;;;22.16;26.75;100924.66;1545044;92;20152;-70
2022/05/07 11:37:19;;;;;;;;;;;;;;;22.30;26.67;100919.91;1503088;95;20162;-72
2022/05/07 11:39:55;;;;;;;;;;;;;;;22.33;25.75;100919.45;1488407;96;20141;-71
2022/05/07 11:42:34;;;;;;;;;;;;;;;22.43;26.00;100909.81;1488267;97;20130;-71
2022/05/07 11:50:54;;;;;;;;;;;;;;;22.16;24.40;100904.00;1455595;99;20155;-72
2022/05/07 11:53:22;;;;;;;;;;;;;;;22.13;25.12;100903.11;1455746;99;20419;-72
2022/05/07 11:55:50;;;;;;;;;;;;;;;22.25;25.74;100900.97;1455931;99;20154;-72
2022/05/07 11:58:20;;;;;;;;;;;;;;;22.29;25.32;100908.59;1455765;99;20427;-70
2022/05/07 12:00:50;;;;;;;;;;;;;;;22.25;25.51;100907.31;1456103;99;20141;-72
2022/05/07 12:03:25;;;;;;;;;;;;;;;22.16;25.53;100892.98;1455627;99;20165;-70
2022/05/07 12:05:53;;;;;;;;;;;;;;;22.22;26.11;100902.25;1454339;98;20161;-70
2022/05/07 12:08:22;;;;;;;;;;;;;;;22.34;25.89;100899.08;1454567;99;20186;-71
2022/05/07 12:10:53;;;;;;;;;;;;;;;22.48;25.33;100896.20;1454513;99;20153;-71
2022/05/07 12:13:23;;;;;;;;;;;;;;;22.48;25.95;100890.14;1461896;95;20167;-71
2022/05/07 12:18:37;;;;;;;;;;;;;;;22.62;25.29;100894.97;1503762;95;20155;-71
2022/05/07 12:21:05;;;;;;;;;;;;;;;22.55;25.29;100876.29;1504692;95;20132;-72
2022/05/07 12:29:49;;;;;;;;;;;;;;;22.41;25.10;100864.58;1505275;95;20153;-71
2022/05/07 12:31:32;;;;;;;;;;;;;;;22.52;25.20;100875.36;1487208;96;20389;-71
2022/05/07 12:33:59;;;;;;;;;;;;;;;22.56;25.68;100869.72;1504945;95;20132;-71
2022/05/07 12:36:26;;;;;;;;;;;;;;;22.67;25.55;100864.80;1503903;96;20156;-71
2022/05/07 12:38:54;;;;;;;;;;;;;;;22.80;25.64;100855.51;1503749;96;20159;-71
2022/05/07 12:41:21;;;;;;;;;;;;;;;22.97;25.70;100861.23;1532805;92;20122;-73
2022/05/07 12:43:48;;;;;;;;;;;;;;;22.85;25.17;100856.20;1580933;91;20122;-71
2022/05/07 12:46:15;;;;;;;;;;;;;;;22.80;25.20;100860.19;1564570;92;20114;-72
2022/05/07 12:48:42;;;;;;;;;;;;;;;22.80;25.47;100861.02;1646121;85;20165;-72
2022/05/07 12:51:09;;;;;;;;;;;;;;;22.86;25.24;100862.00;1690595;84;20111;-72
2022/05/07 12:53:36;;;;;;;;;;;;;;;22.90;24.78;100846.70;1698037;84;20943;-72
2022/05/07 12:56:04;;;;;;;;;;;;;;;22.89;25.21;100856.03;1676540;85;20136;-70
2022/05/07 12:58:31;;;;;;;;;;;;;;;22.94;25.37;100857.55;1676304;86;20105;-72
2022/05/07 13:00:58;;;;;;;;;;;;;;;22.98;24.70;100858.77;1676849;84;20161;-71
2022/05/07 13:03:25;;;;;;;;;;;;;;;22.94;24.72;100859.77;1676677;86;20137;-70
2022/05/07 13:05:52;;;;;;;;;;;;;;;22.80;23.88;100853.30;1677103;86;20141;-72
2022/05/07 13:08:20;;;;;;;;;;;;;;;22.46;24.03;100862.52;1677100;86;20128;-71
2022/05/07 13:10:48;;;;;;;;;;;;;;;22.19;24.08;100863.63;1676822;85;20451;-72
2022/05/07 13:13:18;;;;;;;;;;;;;;;22.04;24.94;100850.73;1650759;86;20110;-71
2022/05/07 13:15:44;;;;;;;;;;;;;;;22.24;25.45;100855.20;1691132;85;20139;-71
2022/05/07 13:18:11;;;;;;;;;;;;;;;22.48;25.16;100849.35;1690741;85;20128;-71
2022/05/07 13:20:40;;;;;;;;;;;;;;;22.62;24.74;100846.73;1691173;84;20099;-71
2022/05/07 13:23:07;;;;;;;;;;;;;;;22.60;24.61;100849.43;1690717;84;20139;-70